Time;durP1;ratioP1;P1;durP2;ratioP2;P2;SDS_P1;SDS_P2;PMS_P1;PMS_P2;Temp;Humidity;BMP_temperature;BMP_pressure;BME280_temperature;BME280_humidity;BME280_pressure;Samples;Min_cycle;Max_cycle;Signal;HPM_P1;HPM_P2
2021/09/04 00:01:40;;;;;;;28.48;14.70;;;;;;;;;;4971713;28;20050;-71
2021/09/04 00:04:06;;;;;;;24.88;13.38;;;;;;;;;;4971518;28;20373;-74
2021/09/04 00:06:31;;;;;;;23.95;13.70;;;;;;;;;;4971054;28;20058;-74
2021/09/04 00:08:56;;;;;;;21.95;12.98;;;;;;;;;;4971433;28;20034;-74
2021/09/04 00:11:22;;;;;;;23.80;13.00;;;;;;;;;;4971356;28;20030;-74
2021/09/04 00:13:48;;;;;;;23.83;12.88;;;;;;;;;;4971120;28;20031;-75
2021/09/04 00:16:14;;;;;;;26.77;13.98;;;;;;;;;;4953867;28;20031;-75
2021/09/04 00:18:39;;;;;;;25.35;14.38;;;;;;;;;;4970664;28;20034;-74
2021/09/04 00:21:05;;;;;;;21.30;13.25;;;;;;;;;;4953803;28;20027;-75
2021/09/04 00:23:30;;;;;;;22.60;13.60;;;;;;;;;;4953545;28;20406;-75
2021/09/04 00:25:56;;;;;;;24.45;14.63;;;;;;;;;;4971411;28;20038;-74
2021/09/04 00:28:21;;;;;;;26.38;14.75;;;;;;;;;;4970909;28;20057;-73
2021/09/04 00:30:47;;;;;;;22.10;13.23;;;;;;;;;;4954031;28;20384;-73
2021/09/04 00:33:13;;;;;;;20.77;13.25;;;;;;;;;;4971128;28;20105;-74
2021/09/04 00:35:38;;;;;;;20.15;12.93;;;;;;;;;;4953633;28;20090;-74
2021/09/04 00:38:04;;;;;;;19.95;12.90;;;;;;;;;;4971066;28;20058;-74
2021/09/04 00:40:29;;;;;;;22.63;13.45;;;;;;;;;;4970915;28;20050;-75
2021/09/04 00:42:55;;;;;;;20.88;12.50;;;;;;;;;;4970980;28;20026;-74
2021/09/04 00:45:20;;;;;;;22.63;12.73;;;;;;;;;;4953495;28;20101;-74
2021/09/04 00:48:01;;;;;;;18.77;12.88;;;;;;;;;;4970922;28;20043;-74
2021/09/04 00:50:28;;;;;;;23.20;14.38;;;;;;;;;;4970644;28;20077;-73
2021/09/04 00:52:54;;;;;;;20.58;12.80;;;;;;;;;;4970881;28;20037;-73
2021/09/04 00:55:21;;;;;;;28.45;13.82;;;;;;;;;;4970991;28;20081;-72
2021/09/04 00:57:47;;;;;;;19.90;13.00;;;;;;;;;;4970671;28;20031;-72
2021/09/04 01:00:13;;;;;;;19.45;12.00;;;;;;;;;;4970515;28;20415;-72
2021/09/04 01:02:38;;;;;;;21.65;13.10;;;;;;;;;;4970880;28;20062;-72
2021/09/04 01:05:07;;;;;;;20.38;12.68;;;;;;;;;;4970473;28;20035;-72
2021/09/04 01:07:33;;;;;;;24.75;12.75;;;;;;;;;;4970631;28;20045;-72
2021/09/04 01:09:58;;;;;;;27.50;13.15;;;;;;;;;;4970803;28;20046;-72
2021/09/04 01:12:25;;;;;;;29.05;20.25;;;;;;;;;;4970511;28;20027;-72
2021/09/04 01:14:50;;;;;;;21.63;12.70;;;;;;;;;;4969735;28;20030;-72
2021/09/04 01:17:16;;;;;;;23.90;12.90;;;;;;;;;;4953057;28;20402;-73
2021/09/04 01:19:41;;;;;;;21.55;12.70;;;;;;;;;;4953057;28;20031;-73
2021/09/04 01:22:08;;;;;;;26.15;13.57;;;;;;;;;;4970525;28;20383;-72
2021/09/04 01:24:34;;;;;;;20.08;12.20;;;;;;;;;;4970268;28;20030;-72
2021/09/04 01:26:59;;;;;;;21.50;12.85;;;;;;;;;;4953201;28;20031;-73
2021/09/04 01:29:25;;;;;;;25.52;13.05;;;;;;;;;;4970642;28;20109;-73
2021/09/04 01:31:50;;;;;;;20.05;12.57;;;;;;;;;;4972185;28;20034;-72
2021/09/04 01:34:16;;;;;;;18.75;12.52;;;;;;;;;;4974923;28;20476;-72
2021/09/04 01:36:41;;;;;;;20.75;12.65;;;;;;;;;;4974522;28;20034;-72
2021/09/04 01:39:09;;;;;;;21.13;12.77;;;;;;;;;;4974814;28;20575;-72
2021/09/04 01:41:37;;;;;;;19.98;12.73;;;;;;;;;;4974801;28;20098;-72
2021/09/04 01:44:03;;;;;;;21.58;12.80;;;;;;;;;;4974987;28;20110;-73
2021/09/04 01:46:30;;;;;;;25.27;13.60;;;;;;;;;;4972660;28;20138;-73
2021/09/04 01:48:57;;;;;;;16.65;11.73;;;;;;;;;;4956642;28;20031;-72
2021/09/04 01:51:23;;;;;;;19.38;12.85;;;;;;;;;;4974087;28;20118;-73
2021/09/04 01:53:49;;;;;;;22.55;13.18;;;;;;;;;;4956436;28;20050;-73
2021/09/04 01:56:15;;;;;;;22.20;13.20;;;;;;;;;;4973934;28;20431;-72
2021/09/04 01:58:40;;;;;;;19.70;13.32;;;;;;;;;;4973970;28;20407;-72
2021/09/04 02:01:07;;;;;;;22.05;13.02;;;;;;;;;;4956366;28;20027;-72
2021/09/04 02:03:36;;;;;;;18.90;11.88;;;;;;;;;;4973607;28;20434;-73
2021/09/04 02:06:03;;;;;;;24.42;12.82;;;;;;;;;;4973560;28;20054;-72
2021/09/04 02:08:28;;;;;;;27.67;13.43;;;;;;;;;;4973846;28;20109;-72
2021/09/04 02:10:54;;;;;;;21.88;13.55;;;;;;;;;;4973583;28;20107;-72
2021/09/04 02:13:19;;;;;;;19.05;12.38;;;;;;;;;;4973939;28;20069;-72
2021/09/04 02:15:45;;;;;;;33.40;13.70;;;;;;;;;;4973481;28;20538;-73
2021/09/04 02:18:10;;;;;;;18.17;11.77;;;;;;;;;;4972158;28;20030;-72
2021/09/04 02:20:36;;;;;;;19.80;11.98;;;;;;;;;;4973350;28;20357;-73
2021/09/04 02:23:01;;;;;;;23.30;13.93;;;;;;;;;;4973591;28;20037;-72
2021/09/04 02:25:27;;;;;;;20.95;12.20;;;;;;;;;;4973366;28;20026;-72
2021/09/04 02:27:52;;;;;;;23.75;12.90;;;;;;;;;;4955814;28;20131;-72
2021/09/04 02:30:17;;;;;;;21.13;13.02;;;;;;;;;;4973279;28;20023;-71
2021/09/04 02:32:44;;;;;;;19.02;12.55;;;;;;;;;;4955631;28;20405;-71
2021/09/04 02:35:10;;;;;;;21.00;12.65;;;;;;;;;;4956764;28;20061;-71
2021/09/04 02:37:36;;;;;;;17.95;11.88;;;;;;;;;;4973722;28;20062;-71
2021/09/04 02:40:04;;;;;;;21.02;12.73;;;;;;;;;;4955835;28;20521;-73
2021/09/04 02:42:29;;;;;;;22.20;12.52;;;;;;;;;;4972691;28;20033;-73
2021/09/04 02:44:55;;;;;;;20.77;12.55;;;;;;;;;;4954741;28;20031;-74
2021/09/04 02:47:20;;;;;;;16.98;12.35;;;;;;;;;;4974093;28;20045;-74
2021/09/04 02:49:47;;;;;;;32.63;12.45;;;;;;;;;;4983479;28;20030;-73
2021/09/04 02:52:12;;;;;;;21.45;13.45;;;;;;;;;;4972947;28;20042;-73
2021/09/04 02:54:38;;;;;;;24.88;13.68;;;;;;;;;;4955230;28;20026;-75
2021/09/04 02:57:04;;;;;;;20.83;12.52;;;;;;;;;;4939495;28;20045;-74
2021/09/04 02:59:29;;;;;;;26.05;13.32;;;;;;;;;;4955445;28;20038;-72
2021/09/04 03:01:55;;;;;;;24.30;13.65;;;;;;;;;;4955159;28;20387;-72
2021/09/04 03:04:20;;;;;;;19.92;12.98;;;;;;;;;;4972759;28;20117;-72
2021/09/04 03:06:46;;;;;;;20.88;12.77;;;;;;;;;;4971209;28;20489;-72
2021/09/04 03:09:11;;;;;;;19.50;11.80;;;;;;;;;;4955729;28;20078;-71
2021/09/04 03:11:37;;;;;;;23.00;13.00;;;;;;;;;;4972750;28;20476;-71
2021/09/04 03:14:02;;;;;;;23.27;12.63;;;;;;;;;;4972761;28;20535;-72
2021/09/04 03:16:28;;;;;;;21.23;13.38;;;;;;;;;;4955193;28;20081;-72
2021/09/04 03:18:54;;;;;;;20.52;11.75;;;;;;;;;;4955326;28;20033;-73
2021/09/04 03:21:19;;;;;;;21.92;12.80;;;;;;;;;;4955293;28;20121;-73
2021/09/04 03:23:45;;;;;;;17.60;12.07;;;;;;;;;;4972388;28;20431;-73
2021/09/04 03:26:10;;;;;;;23.05;13.48;;;;;;;;;;4954965;28;20078;-72
2021/09/04 03:28:36;;;;;;;22.58;13.23;;;;;;;;;;4972199;28;20110;-74
2021/09/04 03:31:02;;;;;;;23.67;12.82;;;;;;;;;;4951836;29;20750;-73
2021/09/04 03:33:27;;;;;;;18.95;12.13;;;;;;;;;;4953235;29;20023;-72
2021/09/04 03:35:53;;;;;;;21.95;12.43;;;;;;;;;;4951662;29;20023;-73
2021/09/04 03:38:18;;;;;;;28.10;13.77;;;;;;;;;;4951669;29;20031;-72
2021/09/04 03:40:44;;;;;;;23.88;13.23;;;;;;;;;;4952797;29;20443;-72
2021/09/04 03:43:09;;;;;;;21.60;13.02;;;;;;;;;;4953487;29;20102;-72
2021/09/04 03:45:35;;;;;;;23.83;15.32;;;;;;;;;;4952681;29;20085;-72
2021/09/04 03:48:01;;;;;;;22.55;13.20;;;;;;;;;;4952686;29;20061;-72
2021/09/04 03:50:26;;;;;;;19.70;12.80;;;;;;;;;;4952481;29;20428;-74
2021/09/04 03:52:52;;;;;;;22.48;13.45;;;;;;;;;;4935232;29;20027;-75
2021/09/04 03:55:17;;;;;;;20.67;13.05;;;;;;;;;;4952307;28;20062;-75
2021/09/04 03:57:43;;;;;;;23.63;13.75;;;;;;;;;;4952512;29;20027;-75
2021/09/04 04:00:09;;;;;;;21.38;12.02;;;;;;;;;;4935329;29;20059;-73
2021/09/04 04:02:34;;;;;;;25.45;12.82;;;;;;;;;;4952659;29;20054;-74
2021/09/04 04:05:00;;;;;;;19.55;12.55;;;;;;;;;;4952476;29;20082;-74
2021/09/04 04:07:25;;;;;;;19.90;12.13;;;;;;;;;;4935238;29;20031;-74
2021/09/04 04:09:51;;;;;;;19.15;12.73;;;;;;;;;;4934933;29;20030;-72
2021/09/04 04:12:16;;;;;;;22.05;13.10;;;;;;;;;;4935192;29;20062;-71
2021/09/04 04:14:42;;;;;;;19.43;12.80;;;;;;;;;;4935012;29;20069;-71
2021/09/04 04:17:07;;;;;;;18.85;11.73;;;;;;;;;;4952202;29;20392;-71
2021/09/04 04:19:33;;;;;;;20.33;12.70;;;;;;;;;;4952331;29;20031;-71
2021/09/04 04:21:58;;;;;;;20.33;12.07;;;;;;;;;;4950661;29;20138;-71
2021/09/04 04:24:24;;;;;;;28.50;12.68;;;;;;;;;;4952265;29;20031;-72
2021/09/04 04:26:49;;;;;;;23.20;13.73;;;;;;;;;;4951815;29;20550;-72
2021/09/04 04:29:15;;;;;;;19.38;12.55;;;;;;;;;;4951940;29;20051;-71
2021/09/04 04:31:40;;;;;;;19.83;13.27;;;;;;;;;;4971370;28;20045;-74
2021/09/04 04:34:06;;;;;;;22.88;13.25;;;;;;;;;;4971888;28;20097;-74
2021/09/04 04:36:33;;;;;;;23.35;12.70;;;;;;;;;;4971046;28;20048;-75
2021/09/04 04:38:58;;;;;;;44.40;17.33;;;;;;;;;;4953582;28;20031;-74
2021/09/04 04:41:24;;;;;;;28.70;13.70;;;;;;;;;;4971326;28;20037;-73
2021/09/04 04:43:49;;;;;;;27.98;13.40;;;;;;;;;;4970904;28;20031;-75
2021/09/04 04:46:15;;;;;;;23.93;12.53;;;;;;;;;;4953617;28;20104;-73
2021/09/04 04:48:41;;;;;;;29.83;14.50;;;;;;;;;;4953531;28;20026;-74
2021/09/04 04:51:06;;;;;;;23.20;13.40;;;;;;;;;;4953379;28;20337;-76
2021/09/04 04:53:32;;;;;;;19.65;13.20;;;;;;;;;;4971026;28;20030;-74
2021/09/04 04:55:59;;;;;;;22.60;13.57;;;;;;;;;;4970655;28;20036;-75
2021/09/04 04:58:25;;;;;;;26.33;14.50;;;;;;;;;;4970875;28;20042;-76
2021/09/04 05:00:51;;;;;;;26.95;16.92;;;;;;;;;;4970665;28;20131;-75
2021/09/04 05:03:17;;;;;;;25.95;19.00;;;;;;;;;;4953476;28;20023;-73
2021/09/04 05:05:42;;;;;;;27.60;17.30;;;;;;;;;;4970425;28;20506;-72
2021/09/04 05:08:10;;;;;;;30.58;19.38;;;;;;;;;;4974269;28;20077;-74
2021/09/04 05:10:35;;;;;;;31.00;17.98;;;;;;;;;;4957353;28;20026;-75
2021/09/04 05:13:01;;;;;;;23.08;16.05;;;;;;;;;;4957191;28;20041;-74
2021/09/04 05:15:26;;;;;;;23.95;15.05;;;;;;;;;;4974470;28;20098;-74
2021/09/04 05:17:51;;;;;;;25.20;14.57;;;;;;;;;;4959502;28;20026;-74
2021/09/04 05:20:17;;;;;;;27.27;14.27;;;;;;;;;;4979380;28;20403;-75
2021/09/04 05:22:45;;;;;;;24.73;13.73;;;;;;;;;;4974530;28;20501;-75
2021/09/04 05:25:10;;;;;;;24.45;13.82;;;;;;;;;;4957116;28;20063;-74
2021/09/04 05:27:37;;;;;;;24.38;13.85;;;;;;;;;;4974363;28;20139;-74
2021/09/04 05:30:02;;;;;;;22.00;15.02;;;;;;;;;;4969142;28;20023;-74
2021/09/04 05:32:28;;;;;;;27.42;13.73;;;;;;;;;;4974530;28;20042;-73
2021/09/04 05:34:53;;;;;;;20.88;13.30;;;;;;;;;;4974395;28;20055;-74
2021/09/04 05:37:19;;;;;;;19.83;13.48;;;;;;;;;;4956792;28;20019;-74
2021/09/04 05:39:45;;;;;;;25.60;12.60;;;;;;;;;;4957051;28;20110;-74
2021/09/04 05:42:10;;;;;;;22.40;12.52;;;;;;;;;;4974623;28;20046;-75
2021/09/04 05:44:36;;;;;;;23.83;13.88;;;;;;;;;;4957114;28;20056;-74
2021/09/04 05:47:03;;;;;;;21.67;12.18;;;;;;;;;;4974330;28;20078;-74
2021/09/04 05:49:29;;;;;;;25.80;13.93;;;;;;;;;;4977595;28;20479;-74
2021/09/04 05:51:54;;;;;;;18.95;12.70;;;;;;;;;;4989708;28;20108;-75
2021/09/04 05:54:20;;;;;;;19.90;12.48;;;;;;;;;;4993605;28;20132;-73
2021/09/04 05:56:45;;;;;;;21.33;14.43;;;;;;;;;;4975733;28;20014;-74
2021/09/04 05:59:11;;;;;;;21.25;13.95;;;;;;;;;;4993492;28;20026;-74
2021/09/04 06:01:36;;;;;;;19.77;12.75;;;;;;;;;;4993536;28;20026;-75
2021/09/04 06:04:02;;;;;;;20.77;12.95;;;;;;;;;;4994155;28;20109;-73
2021/09/04 06:06:27;;;;;;;21.20;13.27;;;;;;;;;;4994075;28;20026;-75
2021/09/04 06:08:53;;;;;;;20.52;12.15;;;;;;;;;;4993214;28;20049;-74
2021/09/04 06:11:18;;;;;;;26.23;13.00;;;;;;;;;;4993274;28;20026;-75
2021/09/04 06:13:44;;;;;;;22.23;13.77;;;;;;;;;;4975531;28;20037;-74
2021/09/04 06:16:09;;;;;;;18.70;12.48;;;;;;;;;;4993168;28;20109;-72
2021/09/04 06:18:35;;;;;;;24.58;13.63;;;;;;;;;;4975224;28;20121;-72
2021/09/04 06:21:00;;;;;;;23.75;12.68;;;;;;;;;;4993206;28;20042;-72
2021/09/04 06:23:26;;;;;;;17.52;12.32;;;;;;;;;;4992886;28;20022;-72
2021/09/04 06:25:51;;;;;;;20.13;12.10;;;;;;;;;;4975030;28;20192;-72
2021/09/04 06:28:17;;;;;;;19.80;12.90;;;;;;;;;;4992924;28;20053;-72
2021/09/04 06:30:42;;;;;;;25.48;13.57;;;;;;;;;;4982070;28;20041;-72
2021/09/04 06:33:08;;;;;;;28.92;14.25;;;;;;;;;;4973344;28;20029;-72
2021/09/04 06:35:33;;;;;;;23.33;13.38;;;;;;;;;;4973418;28;20035;-72
2021/09/04 06:37:59;;;;;;;19.15;12.10;;;;;;;;;;4974119;28;20026;-72
2021/09/04 06:40:24;;;;;;;25.02;14.50;;;;;;;;;;4956253;28;20019;-71
2021/09/04 06:42:50;;;;;;;21.75;13.57;;;;;;;;;;4973139;28;20037;-72
2021/09/04 06:45:15;;;;;;;20.13;12.52;;;;;;;;;;4973074;28;20031;-71
2021/09/04 06:47:41;;;;;;;35.70;31.55;;;;;;;;;;4973348;28;20022;-71
2021/09/04 06:50:08;;;;;;;22.73;13.27;;;;;;;;;;4972969;28;20501;-72
2021/09/04 06:52:33;;;;;;;22.00;12.60;;;;;;;;;;4973016;28;20110;-73
2021/09/04 06:54:58;;;;;;;22.27;12.48;;;;;;;;;;4972711;28;20106;-73
2021/09/04 06:57:24;;;;;;;26.75;14.05;;;;;;;;;;4973043;28;20527;-73
2021/09/04 06:59:49;;;;;;;17.80;12.15;;;;;;;;;;4972787;28;20041;-72
2021/09/04 07:02:15;;;;;;;19.60;12.38;;;;;;;;;;4973028;28;20026;-71
2021/09/04 07:04:41;;;;;;;24.67;14.80;;;;;;;;;;4955197;28;20546;-71
2021/09/04 07:07:06;;;;;;;24.30;13.43;;;;;;;;;;4972867;28;20383;-71
2021/09/04 07:09:32;;;;;;;23.15;13.48;;;;;;;;;;4972825;28;20022;-70
2021/09/04 07:11:58;;;;;;;30.50;14.05;;;;;;;;;;4972303;28;20042;-72
2021/09/04 07:14:24;;;;;;;22.13;12.73;;;;;;;;;;4972634;28;20027;-72
2021/09/04 07:16:49;;;;;;;25.27;14.20;;;;;;;;;;4972469;28;20030;-73
2021/09/04 07:19:16;;;;;;;26.75;12.65;;;;;;;;;;4972561;28;20027;-73
2021/09/04 07:21:42;;;;;;;28.58;14.57;;;;;;;;;;4955079;28;20018;-71
2021/09/04 07:24:07;;;;;;;21.13;14.13;;;;;;;;;;4973016;28;20029;-72
2021/09/04 07:26:33;;;;;;;21.92;12.82;;;;;;;;;;4972520;28;20082;-72
2021/09/04 07:29:00;;;;;;;20.85;12.38;;;;;;;;;;4973056;28;20051;-71
2021/09/04 07:31:25;;;;;;;21.45;12.88;;;;;;;;;;4972406;28;20035;-71
2021/09/04 07:33:51;;;;;;;19.48;13.70;;;;;;;;;;4972562;28;20165;-72
2021/09/04 07:36:17;;;;;;;23.73;12.80;;;;;;;;;;4955024;28;20361;-73
2021/09/04 07:38:42;;;;;;;22.25;13.15;;;;;;;;;;4939064;28;20457;-72
2021/09/04 07:41:08;;;;;;;24.25;14.23;;;;;;;;;;4972191;28;20019;-71
2021/09/04 07:43:33;;;;;;;24.55;13.68;;;;;;;;;;4972535;28;20038;-72
2021/09/04 07:45:59;;;;;;;21.80;13.90;;;;;;;;;;4972258;28;20126;-71
2021/09/04 07:48:25;;;;;;;26.10;15.00;;;;;;;;;;4972192;28;20110;-70
2021/09/04 07:50:54;;;;;;;22.08;12.13;;;;;;;;;;4971825;28;20038;-71
2021/09/04 07:53:20;;;;;;;26.83;15.18;;;;;;;;;;4954816;28;20503;-72
2021/09/04 07:55:46;;;;;;;23.05;14.30;;;;;;;;;;4970796;28;20037;-72
2021/09/04 07:58:12;;;;;;;25.13;14.07;;;;;;;;;;4971677;28;20109;-71
2021/09/04 08:00:37;;;;;;;25.58;15.70;;;;;;;;;;4971915;28;20106;-72
2021/09/04 08:03:03;;;;;;;24.67;15.05;;;;;;;;;;4954517;28;20038;-72
2021/09/04 08:05:29;;;;;;;23.00;14.23;;;;;;;;;;4971790;28;20110;-71
2021/09/04 08:07:54;;;;;;;29.73;14.50;;;;;;;;;;4954117;28;20399;-73
2021/09/04 08:10:20;;;;;;;26.75;14.43;;;;;;;;;;4971724;28;20167;-73
2021/09/04 08:12:45;;;;;;;23.52;14.43;;;;;;;;;;4954045;28;20432;-73
2021/09/04 08:15:11;;;;;;;21.40;13.65;;;;;;;;;;4971291;28;20026;-72
2021/09/04 08:17:36;;;;;;;26.13;15.40;;;;;;;;;;4953997;28;20495;-71
2021/09/04 08:20:03;;;;;;;30.20;17.67;;;;;;;;;;4970455;28;20466;-73
2021/09/04 08:22:29;;;;;;;20.40;13.82;;;;;;;;;;4971432;28;20063;-71
2021/09/04 08:24:55;;;;;;;26.63;13.93;;;;;;;;;;4953789;28;20382;-73
2021/09/04 08:27:21;;;;;;;23.33;14.27;;;;;;;;;;4953926;28;20126;-72
2021/09/04 08:29:47;;;;;;;21.35;13.55;;;;;;;;;;4938083;28;20491;-75
2021/09/04 08:32:12;;;;;;;25.80;14.23;;;;;;;;;;4971383;28;20058;-75
2021/09/04 08:34:38;;;;;;;27.73;14.00;;;;;;;;;;4970204;28;20054;-74
2021/09/04 08:37:04;;;;;;;24.77;14.63;;;;;;;;;;4971355;28;20055;-74
2021/09/04 08:39:30;;;;;;;25.30;15.43;;;;;;;;;;4954210;28;20029;-71
2021/09/04 08:41:55;;;;;;;24.52;13.57;;;;;;;;;;4970907;28;20027;-72
2021/09/04 08:44:21;;;;;;;25.38;13.85;;;;;;;;;;4971056;28;20026;-72
2021/09/04 08:46:47;;;;;;;26.20;13.60;;;;;;;;;;4969746;28;20026;-73
2021/09/04 08:49:13;;;;;;;25.20;13.90;;;;;;;;;;4975219;28;20560;-71
2021/09/04 08:51:40;;;;;;;20.98;13.25;;;;;;;;;;4981683;28;20022;-73
2021/09/04 08:54:05;;;;;;;25.48;14.60;;;;;;;;;;4972867;28;20076;-73
2021/09/04 08:56:33;;;;;;;20.65;13.27;;;;;;;;;;4990470;28;20474;-72
2021/09/04 08:58:59;;;;;;;25.35;14.65;;;;;;;;;;4990200;28;20083;-73
2021/09/04 09:01:27;;;;;;;19.98;13.40;;;;;;;;;;4990423;28;20121;-73
2021/09/04 09:03:54;;;;;;;22.38;12.35;;;;;;;;;;4990230;28;20030;-71
2021/09/04 09:06:34;;;;;;;23.50;12.68;;;;;;;;;;4990277;28;20090;-73
2021/09/04 09:09:20;;;;;;;19.52;12.48;;;;;;;;;;4969697;28;20026;-73
2021/09/04 09:11:49;;;;;;;21.52;12.73;;;;;;;;;;4972769;28;20062;-73
2021/09/04 09:14:14;;;;;;;23.52;14.77;;;;;;;;;;4972732;28;20106;-72
2021/09/04 09:16:56;;;;;;;24.05;13.18;;;;;;;;;;4990375;28;20034;-73
2021/09/04 09:19:28;;;;;;;17.88;11.90;;;;;;;;;;4990524;28;20014;-72
2021/09/04 09:21:58;;;;;;;19.88;11.32;;;;;;;;;;4972671;28;20467;-73
2021/09/04 09:24:26;;;;;;;23.33;12.77;;;;;;;;;;4990373;28;20022;-72
2021/09/04 09:26:57;;;;;;;20.02;12.40;;;;;;;;;;4989944;28;20041;-72
2021/09/04 09:29:34;;;;;;;19.63;13.05;;;;;;;;;;4989845;28;20102;-72
2021/09/04 09:32:10;;;;;;;22.95;13.15;;;;;;;;;;4970562;28;20098;-73
2021/09/04 09:34:40;;;;;;;21.48;12.50;;;;;;;;;;4953086;28;20496;-73
2021/09/04 09:37:07;;;;;;;20.02;11.73;;;;;;;;;;4970788;28;20062;-72
2021/09/04 09:39:38;;;;;;;20.33;12.10;;;;;;;;;;4971435;28;20041;-72
2021/09/04 09:42:05;;;;;;;21.88;14.63;;;;;;;;;;4970384;28;20135;-71
2021/09/04 09:44:33;;;;;;;21.27;14.40;;;;;;;;;;4970939;28;20042;-73
2021/09/04 09:47:01;;;;;;;27.05;14.25;;;;;;;;;;4952800;28;20163;-73
2021/09/04 09:49:41;;;;;;;27.25;14.48;;;;;;;;;;4970597;28;20031;-72
2021/09/04 09:52:09;;;;;;;25.10;15.02;;;;;;;;;;4952993;28;20027;-72
2021/09/04 09:54:36;;;;;;;23.80;14.52;;;;;;;;;;4973148;28;20038;-72
2021/09/04 09:57:11;;;;;;;23.15;12.85;;;;;;;;;;4956548;28;20059;-73
2021/09/04 09:59:44;;;;;;;21.85;12.95;;;;;;;;;;4974026;28;20030;-72
2021/09/04 10:02:12;;;;;;;21.58;13.63;;;;;;;;;;4973989;28;20489;-72
2021/09/04 10:04:39;;;;;;;23.70;12.80;;;;;;;;;;4974219;28;20054;-73
2021/09/04 10:07:09;;;;;;;22.25;12.68;;;;;;;;;;4973851;28;20464;-72
2021/09/04 10:09:39;;;;;;;24.25;11.80;;;;;;;;;;4974239;28;20045;-72
2021/09/04 10:12:07;;;;;;;23.30;13.80;;;;;;;;;;4973921;28;20055;-74
2021/09/04 10:14:34;;;;;;;26.15;12.98;;;;;;;;;;4974076;28;20049;-71
2021/09/04 10:17:01;;;;;;;22.30;13.93;;;;;;;;;;4956003;28;20018;-73
2021/09/04 10:19:29;;;;;;;15.68;10.52;;;;;;;;;;4973715;28;20037;-72
2021/09/04 10:22:04;;;;;;;18.08;11.02;;;;;;;;;;4956335;28;20027;-73
2021/09/04 10:24:50;;;;;;;23.08;12.98;;;;;;;;;;4948889;28;20497;-72
2021/09/04 10:27:28;;;;;;;26.95;13.20;;;;;;;;;;4971602;28;20510;-71
2021/09/04 10:29:54;;;;;;;21.15;12.10;;;;;;;;;;4956811;28;20038;-71
2021/09/04 10:32:20;;;;;;;22.40;13.68;;;;;;;;;;4955834;28;20042;-72
2021/09/04 10:35:04;;;;;;;22.38;13.20;;;;;;;;;;4955906;28;20126;-72
2021/09/04 10:37:29;;;;;;;21.75;13.05;;;;;;;;;;4956250;28;20329;-72
2021/09/04 10:39:56;;;;;;;23.33;13.35;;;;;;;;;;4956133;28;20033;-72
2021/09/04 10:42:31;;;;;;;19.98;12.40;;;;;;;;;;4972031;28;20027;-72
2021/09/04 10:45:17;;;;;;;22.30;14.07;;;;;;;;;;4955924;28;20037;-72
2021/09/04 10:47:55;;;;;;;22.40;13.32;;;;;;;;;;4956016;28;20027;-72
2021/09/04 10:50:26;;;;;;;18.45;11.60;;;;;;;;;;4955849;28;20035;-73
2021/09/04 10:53:05;;;;;;;24.63;12.73;;;;;;;;;;4973384;28;20082;-72
2021/09/04 10:55:36;;;;;;;23.02;11.82;;;;;;;;;;4973196;28;20041;-72
2021/09/04 10:58:07;;;;;;;24.25;13.70;;;;;;;;;;4955806;28;20027;-73
2021/09/04 11:00:47;;;;;;;18.60;11.80;;;;;;;;;;4956131;28;20121;-72
2021/09/04 11:03:17;;;;;;;19.90;12.50;;;;;;;;;;4955526;28;20032;-72
2021/09/04 11:05:48;;;;;;;21.70;12.20;;;;;;;;;;4954733;28;20022;-72
2021/09/04 11:08:20;;;;;;;22.77;11.38;;;;;;;;;;4955591;28;20513;-72
2021/09/04 11:11:15;;;;;;;17.42;11.15;;;;;;;;;;4955761;28;20079;-73
2021/09/04 11:13:51;;;;;;;21.98;12.57;;;;;;;;;;4964979;28;20034;-72
2021/09/04 11:16:25;;;;;;;22.58;11.32;;;;;;;;;;4972871;28;20114;-73
2021/09/04 11:18:51;;;;;;;21.60;13.00;;;;;;;;;;4972728;28;20027;-72
2021/09/04 11:21:17;;;;;;;20.10;12.25;;;;;;;;;;4955235;28;20041;-72
2021/09/04 11:23:43;;;;;;;17.70;11.32;;;;;;;;;;4972422;28;20026;-71
2021/09/04 11:26:09;;;;;;;17.23;10.88;;;;;;;;;;4972231;28;20045;-73
2021/09/04 11:28:35;;;;;;;27.67;11.50;;;;;;;;;;4972273;28;20055;-72
2021/09/04 11:31:02;;;;;;;18.95;10.98;;;;;;;;;;4972631;28;20447;-71
2021/09/04 11:33:28;;;;;;;20.00;10.65;;;;;;;;;;4972717;28;20034;-73
2021/09/04 11:35:56;;;;;;;16.50;10.30;;;;;;;;;;4971887;28;20026;-72
2021/09/04 11:38:23;;;;;;;19.42;11.23;;;;;;;;;;4954921;28;20085;-71
2021/09/04 11:40:52;;;;;;;18.60;10.27;;;;;;;;;;4955421;28;20388;-73
2021/09/04 11:43:24;;;;;;;23.33;11.98;;;;;;;;;;4972074;28;20050;-73
2021/09/04 11:46:02;;;;;;;16.38;10.68;;;;;;;;;;4954595;28;20035;-72
2021/09/04 11:48:28;;;;;;;23.15;11.68;;;;;;;;;;4964679;28;20027;-73
2021/09/04 11:51:03;;;;;;;18.67;10.88;;;;;;;;;;4935466;29;20034;-73
2021/09/04 11:53:29;;;;;;;18.23;10.30;;;;;;;;;;4976639;28;20022;-72
2021/09/04 11:55:54;;;;;;;16.65;9.80;;;;;;;;;;4972023;28;20074;-72
2021/09/04 11:58:20;;;;;;;16.85;11.00;;;;;;;;;;4970931;28;20018;-73
2021/09/04 12:00:45;;;;;;;19.55;10.73;;;;;;;;;;4954116;28;20035;-78
2021/09/04 12:03:14;;;;;;;21.98;11.05;;;;;;;;;;4953982;28;20034;-75
2021/09/04 12:05:46;;;;;;;15.60;11.32;;;;;;;;;;4969831;28;20023;-74
2021/09/04 12:08:15;;;;;;;20.02;11.02;;;;;;;;;;4971155;28;20105;-73
2021/09/04 12:10:42;;;;;;;14.55;10.35;;;;;;;;;;4971442;28;20031;-73
2021/09/04 12:13:11;;;;;;;21.83;11.38;;;;;;;;;;4971121;28;20089;-73
2021/09/04 12:15:37;;;;;;;17.35;10.00;;;;;;;;;;4953888;28;20031;-74
2021/09/04 12:18:06;;;;;;;19.48;10.65;;;;;;;;;;4971419;28;20054;-74
2021/09/04 12:20:41;;;;;;;22.00;11.90;;;;;;;;;;4954355;28;20074;-74
2021/09/04 12:23:22;;;;;;;15.88;10.27;;;;;;;;;;4971308;28;20498;-73
2021/09/04 12:26:07;;;;;;;16.10;10.48;;;;;;;;;;4971744;28;20037;-73
2021/09/04 12:28:33;;;;;;;15.77;10.68;;;;;;;;;;4953949;28;20055;-73
2021/09/04 12:31:05;;;;;;;17.25;10.73;;;;;;;;;;4971357;28;20145;-74
2021/09/04 12:33:31;;;;;;;18.67;10.02;;;;;;;;;;4953703;28;20360;-75
2021/09/04 12:36:03;;;;;;;19.98;11.25;;;;;;;;;;4971389;28;20489;-74
2021/09/04 12:38:42;;;;;;;19.50;10.80;;;;;;;;;;4954149;28;20062;-74
2021/09/04 12:41:15;;;;;;;22.15;11.48;;;;;;;;;;4937918;28;20498;-74
2021/09/04 12:44:05;;;;;;;22.08;14.07;;;;;;;;;;4971706;28;20526;-75
2021/09/04 12:46:52;;;;;;;18.13;10.10;;;;;;;;;;4970698;28;20059;-75
2021/09/04 12:49:47;;;;;;;16.67;10.30;;;;;;;;;;4952746;28;20031;-74
2021/09/04 12:52:16;;;;;;;16.35;10.38;;;;;;;;;;4926915;28;20065;-75
2021/09/04 12:54:46;;;;;;;16.85;10.20;;;;;;;;;;4952833;28;20018;-74
2021/09/04 12:57:23;;;;;;;19.40;10.63;;;;;;;;;;4970377;28;20182;-73
2021/09/04 13:00:00;;;;;;;21.70;11.82;;;;;;;;;;4969891;28;20073;-74
2021/09/04 13:02:35;;;;;;;19.58;12.02;;;;;;;;;;4970458;28;20026;-75
2021/09/04 13:05:04;;;;;;;19.52;10.02;;;;;;;;;;4952998;28;20030;-73
2021/09/04 13:07:44;;;;;;;16.60;10.43;;;;;;;;;;4968898;28;20037;-73
2021/09/04 13:10:17;;;;;;;17.07;9.97;;;;;;;;;;4969026;28;20417;-74
2021/09/04 13:12:44;;;;;;;23.45;10.60;;;;;;;;;;4970677;28;20257;-74
2021/09/04 13:15:10;;;;;;;16.33;10.20;;;;;;;;;;4970367;28;20033;-75
2021/09/04 13:17:37;;;;;;;17.23;10.35;;;;;;;;;;4953001;28;20039;-75
2021/09/04 13:20:03;;;;;;;13.65;9.43;;;;;;;;;;4952874;28;20019;-74
2021/09/04 13:22:31;;;;;;;18.33;10.60;;;;;;;;;;4936737;28;20026;-73
2021/09/04 13:24:56;;;;;;;15.73;10.13;;;;;;;;;;4970643;28;20069;-75
2021/09/04 13:27:22;;;;;;;14.93;9.55;;;;;;;;;;4970834;28;20472;-74
2021/09/04 13:29:48;;;;;;;14.30;9.68;;;;;;;;;;4957035;28;20034;-74
2021/09/04 13:32:13;;;;;;;16.83;10.55;;;;;;;;;;4956955;28;20420;-73
2021/09/04 13:34:40;;;;;;;16.67;10.50;;;;;;;;;;4974282;28;20023;-74
2021/09/04 13:37:05;;;;;;;19.75;10.30;;;;;;;;;;4956901;28;20042;-74
2021/09/04 13:39:31;;;;;;;15.77;9.48;;;;;;;;;;4956928;28;20043;-74
2021/09/04 13:41:57;;;;;;;24.98;10.88;;;;;;;;;;4974247;28;20033;-73
2021/09/04 13:44:22;;;;;;;18.92;10.32;;;;;;;;;;4974164;28;20351;-74
2021/09/04 13:46:48;;;;;;;18.73;10.85;;;;;;;;;;4956260;28;20023;-74
2021/09/04 13:49:13;;;;;;;15.52;9.90;;;;;;;;;;4973814;28;20042;-74
2021/09/04 13:51:39;;;;;;;15.07;9.75;;;;;;;;;;4974218;28;20471;-74
2021/09/04 13:54:05;;;;;;;14.30;9.93;;;;;;;;;;4957234;28;20481;-74
2021/09/04 13:56:30;;;;;;;22.05;10.63;;;;;;;;;;4957176;28;20538;-74
2021/09/04 13:58:56;;;;;;;14.45;9.65;;;;;;;;;;4957336;28;20061;-75
2021/09/04 14:01:21;;;;;;;16.55;10.88;;;;;;;;;;4956686;28;20030;-74
2021/09/04 14:03:48;;;;;;;14.30;10.07;;;;;;;;;;4974659;28;20517;-75
2021/09/04 14:06:14;;;;;;;16.48;10.48;;;;;;;;;;4974151;28;20574;-75
2021/09/04 14:08:40;;;;;;;14.70;9.90;;;;;;;;;;4974624;28;20110;-75
2021/09/04 14:11:05;;;;;;;16.25;9.98;;;;;;;;;;4957114;28;20033;-74
2021/09/04 14:13:31;;;;;;;17.92;10.88;;;;;;;;;;4956188;28;20038;-74
2021/09/04 14:15:57;;;;;;;17.92;9.88;;;;;;;;;;4973840;28;20038;-73
2021/09/04 14:18:24;;;;;;;17.75;9.88;;;;;;;;;;4940416;28;20289;-74
2021/09/04 14:20:50;;;;;;;17.67;10.07;;;;;;;;;;4956076;28;20087;-75